Time;durP1;ratioP1;P1;durP2;ratioP2;P2;SDS_P1;SDS_P2;PMS_P1;PMS_P2;Temp;Humidity;BMP_temperature;BMP_pressure;BME280_temperature;BME280_humidity;BME280_pressure;Samples;Min_cycle;Max_cycle;Signal;HPM_P1;HPM_P2
2021/10/16 00:02:00;;;;;;;26.00;17.80;;;;;;;7.03;81.31;97455.80;115820;1184;72647;-64
2021/10/16 00:04:31;;;;;;;29.50;21.30;;;;;;;7.01;80.32;97458.65;115968;1184;68185;-67
2021/10/16 00:07:00;;;;;;;33.20;24.00;;;;;;;7.02;80.35;97455.16;116375;1183;69225;-66
2021/10/16 00:09:30;;;;;;;49.60;34.50;;;;;;;7.01;81.80;97453.98;116364;1183;60302;-69
2021/10/16 00:12:00;;;;;;;54.60;38.50;;;;;;;6.96;83.88;97450.81;116069;1182;60373;-68
2021/10/16 00:14:31;;;;;;;48.00;33.00;;;;;;;6.87;83.98;97451.32;116366;1183;71417;-68
2021/10/16 00:17:00;;;;;;;41.30;28.10;;;;;;;6.84;83.99;97451.15;116367;1183;67736;-66
2021/10/16 00:19:29;;;;;;;52.40;37.20;;;;;;;6.82;84.16;97449.40;116313;1182;68487;-65
2021/10/16 00:21:59;;;;;;;58.80;37.20;;;;;;;6.74;85.00;97447.08;116019;1183;60444;-67
2021/10/16 00:24:30;;;;;;;35.70;24.90;;;;;;;6.71;85.01;97445.70;115921;1184;60340;-65
2021/10/16 00:27:01;;;;;;;54.90;37.70;;;;;;;6.74;83.92;97444.14;116094;1184;72009;-65
2021/10/16 00:29:31;;;;;;;;;;;;;;;6.73;84.79;97445.91;116144;1182;66762;-65
2021/10/16 00:32:02;;;;;;;26.30;18.40;;;;;;;6.77;83.49;97444.48;116096;1184;69280;-68
2021/10/16 00:34:32;;;;;;;55.70;37.80;;;;;;;6.79;83.08;97440.69;116070;1184;60429;-65
2021/10/16 00:37:02;;;;;;;;;;;;;;;6.76;85.24;97437.41;116125;1182;60645;-65
2021/10/16 00:39:32;;;;;;;52.30;35.90;;;;;;;6.78;84.16;97432.64;115987;1182;71433;-64
2021/10/16 00:42:04;;;;;;;55.90;38.80;;;;;;;6.79;84.63;97431.02;116044;1184;68529;-64
2021/10/16 00:44:36;;;;;;;33.00;23.90;;;;;;;6.77;85.14;97427.66;115824;1184;69279;-67
2021/10/16 00:47:06;;;;;;;58.10;37.10;;;;;;;6.75;84.91;97429.33;116468;1183;60381;-64
2021/10/16 00:49:36;;;;;;;53.90;37.10;;;;;;;6.71;85.70;97427.83;116170;1182;60386;-66
2021/10/16 00:52:07;;;;;;;40.80;27.90;;;;;;;6.71;84.98;97424.02;116189;1182;72842;-68
2021/10/16 00:54:38;;;;;;;26.80;19.60;;;;;;;6.75;84.13;97412.91;116209;1184;68333;-68
2021/10/16 00:57:10;;;;;;;26.20;19.00;;;;;;;6.78;83.43;97408.71;116379;1184;67391;-63
2021/10/16 00:59:40;;;;;;;25.40;17.80;;;;;;;6.82;83.04;97406.22;115948;1184;60365;-66
2021/10/16 01:02:18;;;;;;;35.10;26.00;;;;;;;6.86;82.76;97406.88;116200;1182;60334;-67
2021/10/16 01:04:49;;;;;;;50.30;35.80;;;;;;;6.90;83.61;97406.98;116162;1182;71998;-70
2021/10/16 01:07:19;;;;;;;24.30;17.60;;;;;;;6.92;84.49;97402.38;116032;1182;68234;-64
2021/10/16 01:09:50;;;;;;;39.20;27.20;;;;;;;6.93;84.30;97403.36;116110;1182;69272;-64
2021/10/16 01:12:21;;;;;;;37.50;27.70;;;;;;;6.93;84.35;97398.14;115865;1184;60419;-66
2021/10/16 01:14:57;;;;;;;32.30;23.10;;;;;;;6.93;84.37;97392.23;116305;1183;60419;-64
2021/10/16 01:17:27;;;;;;;30.60;21.40;;;;;;;6.96;83.75;97391.59;116444;1183;71994;-67
2021/10/16 01:20:18;;;;;;;28.10;18.40;;;;;;;6.96;84.18;97396.93;115947;1181;68499;-67
2021/10/16 01:22:50;;;;;;;17.30;12.70;;;;;;;6.98;83.69;97398.73;116377;1184;68500;-69
2021/10/16 01:25:22;;;;;;;19.60;13.30;;;;;;;7.02;82.59;97401.65;116329;1184;60331;-66
2021/10/16 01:27:52;;;;;;;18.50;11.90;;;;;;;7.03;83.07;97405.36;116348;1184;60396;-66
2021/10/16 01:30:24;;;;;;;47.20;30.60;;;;;;;7.00;84.41;97402.44;116225;1184;71200;-64
2021/10/16 01:32:54;;;;;;;28.00;19.90;;;;;;;6.98;84.55;97400.83;116058;1182;67706;-69
2021/10/16 01:35:25;;;;;;;16.40;11.50;;;;;;;6.98;83.35;97395.77;116236;1184;69209;-66
2021/10/16 01:37:55;;;;;;;38.00;24.30;;;;;;;6.99;82.92;97395.02;115988;1184;61016;-66
2021/10/16 01:40:26;;;;;;;23.00;16.50;;;;;;;7.01;82.70;97402.85;115983;1184;60374;-64
2021/10/16 01:42:57;;;;;;;37.00;26.40;;;;;;;7.01;83.42;97400.66;115962;1184;72008;-66
2021/10/16 01:45:28;;;;;;;25.40;17.20;;;;;;;7.01;83.01;97400.60;115936;1184;68382;-71
2021/10/16 01:48:01;;;;;;;22.30;15.80;;;;;;;7.02;83.25;97394.16;116346;1183;68255;-65
2021/10/16 01:50:42;;;;;;;34.10;25.20;;;;;;;7.03;82.59;97393.23;116345;1184;60349;-67
2021/10/16 01:53:20;;;;;;;28.30;19.50;;;;;;;7.04;82.61;97395.46;116013;1183;60828;-67
2021/10/16 01:55:57;;;;;;;47.20;31.80;;;;;;;7.03;83.46;97395.98;116265;1184;71424;-68
2021/10/16 01:58:29;;;;;;;38.20;25.50;;;;;;;6.98;85.03;97395.11;116170;1182;67666;-68
2021/10/16 02:01:14;;;;;;;43.30;28.60;;;;;;;6.97;84.08;97395.00;116139;1184;68723;-64
2021/10/16 02:03:46;;;;;;;32.50;22.80;;;;;;;6.96;84.44;97398.87;115962;1184;60353;-66
2021/10/16 02:06:29;;;;;;;26.10;16.50;;;;;;;6.98;83.50;97399.80;116071;1180;60798;-65
2021/10/16 02:09:00;;;;;;;29.90;22.20;;;;;;;6.99;82.96;97398.64;115912;1184;72277;-65
2021/10/16 02:11:30;;;;;;;40.60;28.40;;;;;;;6.99;84.51;97397.60;116126;1184;68580;-67
2021/10/16 02:14:01;;;;;;;38.70;24.60;;;;;;;6.97;85.20;97400.02;116038;1184;70617;-65
2021/10/16 02:16:32;;;;;;;41.10;28.00;;;;;;;6.95;85.03;97401.48;115898;1184;60425;-65
2021/10/16 02:19:06;;;;;;;47.90;32.50;;;;;;;6.91;85.74;97401.91;115921;1184;60803;-65
2021/10/16 02:21:38;;;;;;;49.00;33.10;;;;;;;6.87;86.08;97400.39;115948;1183;73501;-65
2021/10/16 02:24:09;;;;;;;51.90;33.40;;;;;;;6.85;86.24;97398.64;115836;1184;68579;-65
2021/10/16 02:26:44;;;;;;;30.80;19.20;;;;;;;6.81;86.56;97394.90;115873;1178;69200;-65
2021/10/16 02:29:22;;;;;;;30.40;19.90;;;;;;;6.83;85.39;97395.08;116066;1183;60444;-68
2021/10/16 02:31:59;;;;;;;29.30;21.70;;;;;;;6.87;84.69;97391.40;115837;1184;60365;-64
2021/10/16 02:34:29;;;;;;;39.40;25.20;;;;;;;6.90;85.25;97384.83;115888;1184;72002;-66
2021/10/16 02:37:04;;;;;;;37.80;27.10;;;;;;;6.91;85.06;97380.24;116046;1183;67732;-64
2021/10/16 02:39:34;;;;;;;24.50;16.10;;;;;;;6.93;84.98;97369.58;115908;1184;68520;-64
2021/10/16 02:42:05;;;;;;;23.10;17.40;;;;;;;6.96;84.20;97364.75;116051;1183;60423;-64
2021/10/16 02:44:35;;;;;;;28.80;20.10;;;;;;;6.98;84.01;97363.54;115913;1184;60371;-69
2021/10/16 02:47:05;;;;;;;32.50;23.30;;;;;;;7.00;85.09;97366.20;115895;1184;72166;-67
2021/10/16 02:49:36;;;;;;;23.40;17.40;;;;;;;7.01;84.61;97368.74;115870;1184;67700;-67
2021/10/16 02:52:06;;;;;;;18.70;12.40;;;;;;;7.03;84.14;97369.13;115960;1184;69140;-68
2021/10/16 02:54:36;;;;;;;27.90;18.20;;;;;;;7.06;84.90;97367.93;115980;1184;60366;-69
2021/10/16 02:57:06;;;;;;;19.80;14.40;;;;;;;7.05;85.45;97370.21;116038;1181;60334;-65
2021/10/16 02:59:36;;;;;;;;;;;;;;;7.06;85.20;97370.55;116082;1184;71446;-66
2021/10/16 03:02:06;;;;;;;30.00;20.10;;;;;;;7.06;85.23;97371.02;116363;1183;68343;-64
2021/10/16 03:04:37;;;;;;;23.30;15.00;;;;;;;7.06;85.39;97372.96;115926;1184;69302;-68
2021/10/16 03:07:08;;;;;;;38.50;27.50;;;;;;;7.06;84.55;97379.70;115889;1184;60495;-64
2021/10/16 03:09:43;;;;;;;27.60;18.30;;;;;;;7.02;85.68;97381.02;115920;1184;60370;-64
2021/10/16 03:12:17;;;;;;;42.50;27.20;;;;;;;7.00;85.61;97380.45;115976;1184;72890;-65
2021/10/16 03:14:52;;;;;;;32.30;21.40;;;;;;;6.94;86.49;97383.57;116015;1176;68654;-68
2021/10/16 03:17:21;;;;;;;32.10;21.30;;;;;;;6.95;85.16;97384.02;115929;1184;68329;-67
2021/10/16 03:19:52;;;;;;;30.40;21.80;;;;;;;6.97;84.61;97385.59;116166;1183;60414;-66
2021/10/16 03:22:22;;;;;;;25.10;18.80;;;;;;;6.98;84.84;97385.25;116093;1183;60342;-69
2021/10/16 03:24:52;;;;;;;37.10;23.30;;;;;;;6.98;84.19;97386.41;116184;1183;72228;-67
2021/10/16 03:27:22;;;;;;;24.50;16.50;;;;;;;7.00;84.13;97387.89;115963;1184;67450;-68
2021/10/16 03:29:52;;;;;;;34.80;24.70;;;;;;;6.99;84.94;97383.08;116025;1183;68391;-68
2021/10/16 03:32:22;;;;;;;33.80;23.80;;;;;;;6.97;86.21;97384.39;115968;1183;60367;-65
2021/10/16 03:34:52;;;;;;;32.30;21.20;;;;;;;6.96;86.08;97383.61;115844;1184;60365;-67
2021/10/16 03:37:23;;;;;;;24.00;14.90;;;;;;;6.98;85.32;97379.17;116007;1184;71222;-64
2021/10/16 03:39:56;;;;;;;19.00;12.70;;;;;;;7.00;84.68;97370.89;116063;1183;67684;-65
2021/10/16 03:42:27;;;;;;;23.20;15.70;;;;;;;7.04;84.39;97357.84;116003;1184;69143;-65
2021/10/16 03:45:06;;;;;;;23.30;15.30;;;;;;;7.08;83.96;97347.05;116046;1183;60313;-65
2021/10/16 03:47:36;;;;;;;25.30;17.00;;;;;;;7.09;83.67;97347.46;115891;1184;60324;-67
2021/10/16 03:50:07;;;;;;;18.80;13.10;;;;;;;7.10;84.61;97355.54;115863;1183;72243;-69
2021/10/16 03:52:37;;;;;;;27.70;20.00;;;;;;;7.13;83.57;97356.58;115845;1184;67676;-65
2021/10/16 03:55:08;;;;;;;29.90;19.50;;;;;;;7.13;83.50;97355.36;115843;1184;68469;-65
2021/10/16 03:57:37;;;;;;;27.00;18.80;;;;;;;7.14;83.60;97356.52;115978;1184;60324;-65
2021/10/16 04:00:15;;;;;;;23.70;15.50;;;;;;;7.08;84.76;97358.79;116052;1184;60321;-65
2021/10/16 04:02:50;;;;;;;21.00;14.30;;;;;;;7.05;84.89;97359.66;116143;1184;71964;-67
2021/10/16 04:05:21;;;;;;;26.30;18.20;;;;;;;7.07;84.21;97354.55;115842;1184;68310;-66
2021/10/16 04:07:51;;;;;;;14.10;10.30;;;;;;;7.08;84.38;97352.70;115916;1184;69959;-70
2021/10/16 04:10:21;;;;;;;20.10;14.70;;;;;;;7.11;84.16;97362.58;115905;1181;60363;-69
2021/10/16 04:12:51;;;;;;;41.10;26.60;;;;;;;7.10;85.39;97366.96;115983;1184;60402;-67
2021/10/16 04:15:20;;;;;;;34.50;23.30;;;;;;;7.05;86.44;97369.52;115960;1183;72208;-64
2021/10/16 04:17:50;;;;;;;27.30;19.00;;;;;;;7.04;86.14;97364.95;115907;1183;66795;-64
2021/10/16 04:20:21;;;;;;;19.90;13.90;;;;;;;7.06;85.23;97366.21;115912;1179;69245;-65
2021/10/16 04:22:53;;;;;;;37.50;25.70;;;;;;;7.06;85.45;97366.19;115969;1184;60383;-64
2021/10/16 04:25:22;;;;;;;36.20;22.80;;;;;;;7.02;86.56;97373.35;115941;1184;60409;-65
2021/10/16 04:27:52;;;;;;;38.50;24.50;;;;;;;6.99;86.79;97374.25;116027;1182;72286;-65
2021/10/16 04:30:48;;;;;;;21.80;14.00;;;;;;;6.97;86.81;97373.67;116075;1183;67653;-65
2021/10/16 04:33:19;;;;;;;19.60;11.90;;;;;;;7.00;85.85;97371.06;115974;1184;68756;-65
2021/10/16 04:35:49;;;;;;;19.10;12.90;;;;;;;7.03;85.31;97369.98;116059;1183;60332;-65
2021/10/16 04:38:19;;;;;;;17.10;11.70;;;;;;;7.07;85.06;97367.36;116065;1182;60318;-70
2021/10/16 04:40:48;;;;;;;16.70;11.30;;;;;;;7.10;84.70;97361.61;116011;1184;71613;-67
2021/10/16 04:43:18;;;;;;;15.60;11.10;;;;;;;7.14;84.50;97358.09;116114;1184;68350;-69
2021/10/16 04:45:50;;;;;;;31.20;20.40;;;;;;;7.18;84.09;97354.59;115849;1184;69851;-69
2021/10/16 04:48:19;;;;;;;21.50;15.30;;;;;;;7.18;85.13;97349.20;115996;1182;60332;-66
2021/10/16 04:50:52;;;;;;;18.00;12.10;;;;;;;7.18;85.51;97349.77;116029;1183;60411;-64
2021/10/16 04:53:22;;;;;;;21.60;14.90;;;;;;;7.19;84.84;97346.23;115887;1184;71479;-69
2021/10/16 04:55:52;;;;;;;17.10;11.30;;;;;;;7.21;84.25;97343.67;115815;1184;67643;-64
2021/10/16 04:58:28;;;;;;;13.50;9.50;;;;;;;7.23;84.01;97345.64;115813;1176;69731;-67
2021/10/16 05:00:59;;;;;;;13.40;8.70;;;;;;;7.25;83.89;97345.83;115872;1183;60289;-67
2021/10/16 05:03:28;;;;;;;15.20;10.10;;;;;;;7.27;83.75;97343.45;115926;1181;60335;-65
2021/10/16 05:05:58;;;;;;;;;;;;;;;7.27;84.49;97343.98;116090;1184;71393;-67
2021/10/16 05:08:30;;;;;;;27.90;18.90;;;;;;;7.26;84.71;97347.69;116247;1184;68479;-66
2021/10/16 05:11:00;;;;;;;24.30;16.10;;;;;;;7.26;84.52;97345.06;115836;1184;70326;-69
2021/10/16 05:13:29;;;;;;;26.20;18.30;;;;;;;7.25;85.22;97347.04;116036;1183;60381;-69
2021/10/16 05:15:59;;;;;;;30.00;19.00;;;;;;;7.19;85.98;97347.95;115952;1184;60322;-69
2021/10/16 05:18:29;;;;;;;;;;;;;;;7.13;86.31;97345.50;116025;1184;72459;-67
2021/10/16 05:20:58;;;;;;;33.90;21.90;;;;;;;7.10;86.02;97352.12;115789;1184;68439;-68
2021/10/16 05:23:28;;;;;;;34.70;20.90;;;;;;;7.01;87.06;97360.73;115928;1184;69256;-66
2021/10/16 05:25:58;;;;;;;25.60;17.10;;;;;;;6.94;87.05;97363.10;115865;1184;60415;-69
2021/10/16 05:28:27;;;;;;;36.80;21.80;;;;;;;6.93;86.84;97367.48;115881;1184;60374;-70
2021/10/16 05:30:57;;;;;;;38.30;23.60;;;;;;;6.92;87.36;97363.91;115905;1183;72318;-66
2021/10/16 05:33:26;;;;;;;24.00;15.60;;;;;;;6.94;87.30;97363.83;115951;1184;67865;-66
2021/10/16 05:35:57;;;;;;;23.90;16.40;;;;;;;7.00;86.74;97369.17;115926;1184;68733;-63
2021/10/16 05:38:27;;;;;;;22.40;12.80;;;;;;;7.05;86.54;97373.86;116044;1183;60382;-65
2021/10/16 05:40:56;;;;;;;26.10;16.80;;;;;;;7.12;86.23;97376.38;116016;1182;60380;-66
2021/10/16 05:43:26;;;;;;;19.20;13.90;;;;;;;7.18;86.07;97375.72;115899;1182;72605;-65
2021/10/16 05:45:59;;;;;;;13.90;9.30;;;;;;;7.24;85.63;97377.78;116043;1184;68182;-66
2021/10/16 05:48:30;;;;;;;21.60;13.90;;;;;;;7.29;85.23;97377.67;115819;1184;69389;-66
2021/10/16 05:51:00;;;;;;;19.60;13.70;;;;;;;7.34;85.07;97380.83;116023;1184;60348;-69
2021/10/16 05:53:30;;;;;;;14.40;9.10;;;;;;;7.40;84.80;97377.88;115955;1183;60417;-65
2021/10/16 05:56:00;;;;;;;18.90;12.20;;;;;;;7.45;84.15;97382.75;116006;1182;72221;-64
2021/10/16 05:58:29;;;;;;;31.40;21.20;;;;;;;7.49;83.78;97385.27;115877;1184;68683;-66
2021/10/16 06:01:01;;;;;;;31.70;21.40;;;;;;;7.46;85.20;97389.10;115976;1184;68557;-65
2021/10/16 06:03:34;;;;;;;38.50;23.00;;;;;;;7.39;85.31;97387.43;115899;1184;60382;-67
2021/10/16 06:06:03;;;;;;;21.20;14.00;;;;;;;7.39;85.20;97389.69;116129;1182;60315;-65
2021/10/16 06:08:33;;;;;;;30.90;19.90;;;;;;;7.43;85.26;97386.86;115880;1184;72916;-64
2021/10/16 06:11:03;;;;;;;23.30;14.90;;;;;;;7.42;85.61;97391.61;116067;1182;68552;-67
2021/10/16 06:13:33;;;;;;;24.10;16.30;;;;;;;7.45;85.21;97393.16;116323;1182;69478;-68
2021/10/16 06:16:01;;;;;;;35.00;21.20;;;;;;;7.50;85.16;97394.39;115967;1184;60380;-68
2021/10/16 06:18:30;;;;;;;21.50;14.30;;;;;;;7.55;84.97;97400.05;116129;1184;60368;-65
2021/10/16 06:21:02;;;;;;;31.90;24.10;;;;;;;7.60;84.57;97401.28;116122;1184;72552;-65
2021/10/16 06:23:33;;;;;;;27.10;17.60;;;;;;;7.61;85.07;97403.60;116174;1184;67851;-67
2021/10/16 06:26:03;;;;;;;18.20;13.20;;;;;;;7.63;84.44;97403.84;116027;1184;68517;-67
2021/10/16 06:28:32;;;;;;;23.10;15.70;;;;;;;7.66;83.85;97406.96;115841;1184;60290;-66
2021/10/16 06:31:01;;;;;;;19.70;12.80;;;;;;;7.68;83.93;97405.84;115977;1184;60381;-68
2021/10/16 06:33:31;;;;;;;20.20;13.90;;;;;;;7.71;83.70;97409.25;116023;1183;71619;-68
2021/10/16 06:36:01;;;;;;;32.30;21.00;;;;;;;7.74;84.11;97413.27;116052;1183;68452;-68
2021/10/16 06:38:40;;;;;;;31.10;20.30;;;;;;;7.75;84.94;97413.39;116097;1184;68742;-68
2021/10/16 06:41:09;;;;;;;32.60;22.50;;;;;;;7.76;84.81;97416.78;115945;1184;60409;-67
2021/10/16 06:43:50;;;;;;;33.20;22.40;;;;;;;7.76;84.79;97419.03;115950;1185;60383;-67
2021/10/16 06:46:43;;;;;;;21.90;13.20;;;;;;;7.79;84.60;97422.45;115989;1184;70490;-66
2021/10/16 06:49:31;;;;;;;34.00;21.60;;;;;;;7.87;83.73;97422.18;115951;1184;68793;-67
2021/10/16 06:52:00;;;;;;;31.60;19.80;;;;;;;7.89;84.18;97426.19;116022;1183;69383;-66
2021/10/16 06:54:30;;;;;;;26.60;18.40;;;;;;;7.86;83.49;97426.38;115976;1184;60366;-68
2021/10/16 06:56:59;;;;;;;29.20;18.10;;;;;;;7.85;83.33;97432.90;116070;1183;60344;-65
2021/10/16 06:59:29;;;;;;;23.90;17.20;;;;;;;7.82;83.47;97431.16;116080;1184;72127;-70
2021/10/16 07:01:59;;;;;;;18.60;13.60;;;;;;;7.84;83.35;97432.26;116011;1184;68224;-69
2021/10/16 07:04:34;;;;;;;18.30;12.70;;;;;;;7.88;82.97;97437.36;115972;1184;68531;-64
2021/10/16 07:07:04;;;;;;;20.80;14.60;;;;;;;7.93;82.63;97442.08;116080;1183;60349;-68
2021/10/16 07:09:39;;;;;;;22.40;15.70;;;;;;;7.93;83.06;97440.54;115873;1184;60377;-67
2021/10/16 07:12:09;;;;;;;32.90;22.70;;;;;;;7.94;83.07;97440.66;116176;1184;72313;-66
2021/10/16 07:14:38;;;;;;;20.10;14.00;;;;;;;7.93;83.55;97443.65;115970;1184;68484;-69
2021/10/16 07:17:10;;;;;;;20.00;13.80;;;;;;;7.97;82.95;97445.69;115995;1184;69743;-69
2021/10/16 07:19:40;;;;;;;21.90;17.90;;;;;;;7.98;82.81;97446.83;115952;1184;60741;-64
2021/10/16 07:22:09;;;;;;;32.90;24.80;;;;;;;7.98;82.85;97448.91;116001;1184;60424;-73
2021/10/16 07:24:38;;;;;;;30.50;20.80;;;;;;;7.93;83.12;97444.54;116045;1184;72122;-63
2021/10/16 07:27:07;;;;;;;30.00;21.30;;;;;;;7.87;83.25;97444.23;116193;1184;69743;-64
2021/10/16 07:29:37;;;;;;;33.00;22.60;;;;;;;7.85;83.77;97443.80;116157;1183;69305;-66
2021/10/16 07:32:06;;;;;;;26.10;17.70;;;;;;;7.78;84.11;97440.95;116138;1183;60380;-66
2021/10/16 07:34:35;;;;;;;32.80;22.20;;;;;;;7.81;83.79;97446.31;116103;1184;60380;-65
2021/10/16 07:37:04;;;;;;;30.60;21.70;;;;;;;7.75;84.15;97445.11;116101;1182;72819;-60
2021/10/16 07:39:34;;;;;;;22.00;14.10;;;;;;;7.80;83.67;97438.39;116114;1184;67440;-64
2021/10/16 07:42:04;;;;;;;20.30;14.50;;;;;;;7.87;83.53;97440.39;115859;1184;69330;-66
2021/10/16 07:44:32;;;;;;;28.00;17.50;;;;;;;7.92;83.39;97443.90;116093;1182;60369;-67
2021/10/16 07:47:02;;;;;;;26.90;18.70;;;;;;;7.95;83.44;97443.88;116139;1182;60355;-66
2021/10/16 07:49:31;;;;;;;22.80;15.90;;;;;;;7.96;83.88;97443.64;116100;1174;71522;-66
2021/10/16 07:52:00;;;;;;;15.90;11.70;;;;;;;7.99;83.49;97448.34;116095;1182;68448;-68
2021/10/16 07:54:29;;;;;;;24.50;17.10;;;;;;;8.02;83.15;97444.50;115970;1184;69313;-64
2021/10/16 07:57:01;;;;;;;18.80;13.10;;;;;;;8.05;83.13;97442.73;116135;1184;60346;-68
2021/10/16 07:59:30;;;;;;;13.10;8.80;;;;;;;8.11;82.98;97444.61;116031;1183;60380;-64
2021/10/16 08:02:00;;;;;;;20.40;15.00;;;;;;;8.20;82.57;97443.73;116087;1182;72312;-67
2021/10/16 08:04:29;;;;;;;33.10;22.20;;;;;;;8.27;82.36;97450.06;116077;1184;68229;-65
2021/10/16 08:06:58;;;;;;;28.70;21.10;;;;;;;8.28;82.80;97450.34;116024;1184;69506;-65
2021/10/16 08:09:28;;;;;;;20.70;15.00;;;;;;;8.27;82.63;97456.52;116169;1182;60736;-64
2021/10/16 08:11:57;;;;;;;15.50;11.70;;;;;;;8.31;82.19;97451.50;115873;1184;60365;-63
2021/10/16 08:14:26;;;;;;;20.50;14.30;;;;;;;8.41;82.12;97451.64;115938;1184;72381;-65
2021/10/16 08:16:56;;;;;;;21.30;15.20;;;;;;;8.51;82.12;97453.95;115997;1184;68445;-66
2021/10/16 08:19:25;;;;;;;23.10;14.80;;;;;;;8.59;82.27;97457.41;116052;1176;69397;-64
2021/10/16 08:21:55;;;;;;;23.00;16.20;;;;;;;8.67;82.21;97460.75;115988;1184;60365;-64
2021/10/16 08:24:23;;;;;;;22.10;14.60;;;;;;;8.73;82.26;97461.94;116100;1183;60327;-64
2021/10/16 08:26:55;;;;;;;19.20;13.40;;;;;;;8.77;81.79;97458.02;116188;1182;72185;-67
2021/10/16 08:29:24;;;;;;;17.90;10.80;;;;;;;8.84;81.67;97456.69;116150;1182;67887;-67
2021/10/16 08:31:55;;;;;;;13.20;9.20;;;;;;;8.92;81.36;97455.46;116151;1179;69247;-67
2021/10/16 08:34:23;;;;;;;15.30;10.30;;;;;;;9.00;81.03;97452.52;116147;1184;60775;-68
2021/10/16 08:36:53;;;;;;;24.40;18.30;;;;;;;9.06;80.83;97454.23;116127;1183;60371;-63
2021/10/16 08:39:23;;;;;;;13.70;9.80;;;;;;;9.10;79.99;97454.63;116078;1184;72204;-65
2021/10/16 08:41:53;;;;;;;14.80;10.50;;;;;;;9.14;80.11;97456.28;116140;1183;67679;-67
2021/10/16 08:44:24;;;;;;;14.70;10.70;;;;;;;9.18;80.14;97457.90;116117;1184;69894;-67
2021/10/16 08:46:57;;;;;;;15.70;10.00;;;;;;;9.21;80.07;97458.95;116028;1184;60394;-63
2021/10/16 08:49:30;;;;;;;17.30;12.30;;;;;;;9.24;79.99;97460.65;116134;1176;60370;-64
2021/10/16 08:52:00;;;;;;;15.20;10.20;;;;;;;9.27;79.82;97459.95;116055;1184;72191;-64
2021/10/16 08:54:29;;;;;;;15.20;11.30;;;;;;;9.29;79.76;97457.89;116094;1184;68804;-63
2021/10/16 08:56:58;;;;;;;18.60;12.60;;;;;;;9.30;79.41;97457.83;116061;1183;68602;-67
2021/10/16 08:59:28;;;;;;;10.70;8.20;;;;;;;9.31;79.44;97461.55;116091;1182;60345;-67
2021/10/16 09:01:58;;;;;;;15.10;11.10;;;;;;;9.34;79.34;97463.83;116160;1183;60770;-64
2021/10/16 09:04:29;;;;;;;27.50;20.10;;;;;;;9.34;79.28;97467.82;115932;1184;72115;-64
2021/10/16 09:06:58;;;;;;;15.80;12.80;;;;;;;9.30;79.87;97467.90;116084;1182;67680;-63
2021/10/16 09:09:31;;;;;;;24.30;16.40;;;;;;;9.29;79.64;97466.74;116288;1180;68482;-65
2021/10/16 09:12:11;;;;;;;22.30;14.80;;;;;;;9.23;79.22;97468.71;116308;1174;60379;-62
2021/10/16 09:14:46;;;;;;;25.90;17.50;;;;;;;9.21;79.44;97468.51;116151;1182;60300;-66
2021/10/16 09:17:17;;;;;;;23.80;17.50;;;;;;;9.16;79.36;97465.84;116057;1184;71958;-66
2021/10/16 09:19:48;;;;;;;19.90;13.80;;;;;;;9.09;79.31;97465.27;116145;1184;68396;-63
2021/10/16 09:22:21;;;;;;;15.90;10.80;;;;;;;9.11;79.54;97467.41;116104;1183;69824;-63
2021/10/16 09:24:51;;;;;;;18.70;13.40;;;;;;;9.16;79.75;97467.45;115993;1184;60376;-64
2021/10/16 09:27:22;;;;;;;16.30;12.20;;;;;;;9.19;79.57;97472.46;116057;1184;60375;-67
2021/10/16 09:30:00;;;;;;;30.40;20.20;;;;;;;9.20;79.74;97470.14;116212;1182;72601;-64
2021/10/16 09:32:30;;;;;;;29.50;21.10;;;;;;;9.19;79.79;97467.77;116230;1182;67741;-63
2021/10/16 09:35:08;;;;;;;28.20;21.30;;;;;;;9.11;80.30;97466.91;116180;1182;69287;-66
2021/10/16 09:37:51;;;;;;;20.50;14.40;;;;;;;9.12;80.10;97471.37;116280;1182;60335;-64
2021/10/16 09:40:38;;;;;;;20.10;14.80;;;;;;;9.16;79.80;97471.95;116037;1183;60377;-66
2021/10/16 09:43:21;;;;;;;31.30;20.00;;;;;;;9.17;79.80;97475.88;116082;1184;70636;-63
2021/10/16 09:46:13;;;;;;;26.80;19.60;;;;;;;9.13;80.17;97474.27;116065;1184;68398;-66
2021/10/16 09:48:45;;;;;;;27.70;19.10;;;;;;;9.10;80.18;97476.69;116046;1183;68207;-67
2021/10/16 09:51:16;;;;;;;21.40;14.20;;;;;;;9.11;80.23;97477.55;116104;1183;60741;-65
2021/10/16 09:53:45;;;;;;;;;;;;;;;9.14;79.90;97476.97;116096;1183;60796;-67
2021/10/16 09:56:15;;;;;;;19.90;14.90;;;;;;;9.12;79.88;97482.96;116200;1182;72352;-64
2021/10/16 09:58:44;;;;;;;22.40;17.00;;;;;;;9.20;79.77;97480.77;116118;1183;68402;-64
2021/10/16 10:01:14;;;;;;;39.80;24.10;;;;;;;9.24;80.16;97481.05;116112;1184;69056;-65
2021/10/16 10:03:44;;;;;;;30.30;21.80;;;;;;;9.21;80.26;97483.81;116204;1182;60351;-66
2021/10/16 10:06:18;;;;;;;26.10;18.30;;;;;;;9.16;80.70;97485.67;116264;1182;60388;-66
2021/10/16 10:08:47;;;;;;;21.50;14.40;;;;;;;9.10;80.99;97485.23;116042;1184;72080;-64
2021/10/16 10:11:17;;;;;;;20.90;14.30;;;;;;;9.16;80.13;97482.03;116121;1184;68393;-63
2021/10/16 10:13:49;;;;;;;23.40;17.20;;;;;;;9.18;80.54;97482.77;116137;1182;69246;-68
2021/10/16 10:16:19;;;;;;;32.10;22.40;;;;;;;9.09;81.36;97483.91;116043;1184;60376;-63
2021/10/16 10:19:06;;;;;;;33.30;23.20;;;;;;;9.02;81.79;97483.16;115977;1184;60345;-64
2021/10/16 10:21:38;;;;;;;30.90;21.40;;;;;;;9.02;82.34;97482.46;116079;1184;72760;-63
2021/10/16 10:24:10;;;;;;;30.10;21.70;;;;;;;9.02;82.06;97479.48;116196;1183;67532;-67
2021/10/16 10:26:41;;;;;;;22.30;16.60;;;;;;;9.03;81.90;97477.14;116294;1182;69455;-62
2021/10/16 10:29:13;;;;;;;22.30;15.30;;;;;;;9.11;81.67;97474.88;116310;1182;60390;-63
2021/10/16 10:31:45;;;;;;;37.20;27.20;;;;;;;9.20;81.74;97473.08;116111;1184;60344;-64
2021/10/16 10:34:15;;;;;;;30.90;21.70;;;;;;;9.21;81.59;97473.17;116138;1185;72238;-66
2021/10/16 10:36:47;;;;;;;30.20;20.30;;;;;;;9.24;81.88;97473.04;116147;1182;68234;-62
2021/10/16 10:39:34;;;;;;;33.00;22.90;;;;;;;9.23;81.18;97471.33;116157;1182;69348;-64
2021/10/16 10:42:09;;;;;;;32.20;22.90;;;;;;;9.25;81.45;97468.29;116147;1182;60355;-64
2021/10/16 10:44:46;;;;;;;34.00;23.30;;;;;;;9.25;81.26;97467.55;116278;1182;60362;-65
2021/10/16 10:47:22;;;;;;;33.70;23.10;;;;;;;9.28;81.34;97461.94;116290;1182;72204;-66
2021/10/16 10:49:54;;;;;;;30.70;22.00;;;;;;;9.30;81.60;97459.06;116229;1182;68989;-68
2021/10/16 10:52:26;;;;;;;24.90;16.70;;;;;;;9.32;81.62;97455.76;116137;1182;69887;-64
2021/10/16 10:54:59;;;;;;;33.60;22.80;;;;;;;9.34;82.01;97451.83;116221;1182;60330;-65
2021/10/16 10:57:44;;;;;;;31.50;22.60;;;;;;;9.33;82.50;97456.20;116138;1183;60334;-66
2021/10/16 11:00:38;;;;;;;33.10;22.30;;;;;;;9.34;81.96;97456.48;116087;1184;72230;-63
2021/10/16 11:03:29;;;;;;;27.80;19.80;;;;;;;9.37;82.13;97456.46;116078;1184;68361;-63
2021/10/16 11:06:10;;;;;;;21.20;14.50;;;;;;;9.46;81.38;97454.14;116182;1179;69050;-64
2021/10/16 11:08:40;;;;;;;26.50;19.30;;;;;;;9.54;81.64;97452.20;116147;1183;60335;-66
2021/10/16 11:11:09;;;;;;;32.20;21.90;;;;;;;9.54;81.23;97451.14;116138;1182;60349;-65
2021/10/16 11:13:38;;;;;;;32.80;23.30;;;;;;;9.55;81.22;97451.48;116185;1182;72265;-64
2021/10/16 11:16:08;;;;;;;39.10;25.90;;;;;;;9.57;81.37;97448.70;116160;1184;68546;-64
2021/10/16 11:18:38;;;;;;;31.00;22.30;;;;;;;9.56;81.48;97446.13;116080;1184;69255;-63
2021/10/16 11:21:06;;;;;;;;;;;;;;;9.49;82.05;97443.66;116222;1182;60428;-65
2021/10/16 11:23:41;;;;;;;33.60;23.30;;;;;;;9.46;82.47;97445.09;116196;1182;60368;-67
2021/10/16 11:26:14;;;;;;;35.10;22.90;;;;;;;9.47;82.04;97441.02;116169;1184;72232;-64
2021/10/16 11:28:43;;;;;;;22.60;15.50;;;;;;;9.52;82.36;97441.70;116136;1183;67642;-63
2021/10/16 11:31:12;;;;;;;30.50;19.30;;;;;;;9.61;82.49;97441.13;116045;1184;69312;-69
2021/10/16 11:33:41;;;;;;;20.20;16.10;;;;;;;9.63;81.86;97439.91;116079;1184;60357;-63
2021/10/16 11:36:13;;;;;;;31.00;22.40;;;;;;;9.63;82.16;97441.67;116147;1183;60383;-66
2021/10/16 11:38:42;;;;;;;33.40;22.50;;;;;;;9.62;82.94;97443.15;116083;1180;72200;-66
2021/10/16 11:41:12;;;;;;;34.40;24.20;;;;;;;9.56;83.24;97441.58;116042;1184;68276;-69